createdAt,value
2019-03-20T00:00:10.148Z,1025.05
2019-03-20T00:01:10.040Z,1025.07
2019-03-20T00:02:09.933Z,1025.07
2019-03-20T00:03:10.152Z,1025.04
2019-03-20T00:04:09.763Z,1025.06
2019-03-20T00:05:09.605Z,1025.04
2019-03-20T00:06:09.500Z,1024.98
2019-03-20T00:07:09.390Z,1025.03
2019-03-20T00:08:09.281Z,1025.02
2019-03-20T00:09:09.177Z,1025.01
2019-03-20T00:10:09.068Z,1025.06
2019-03-20T00:11:08.959Z,1025.07
2019-03-20T00:12:08.894Z,1025.08
2019-03-20T00:13:08.741Z,1025.11
2019-03-20T00:14:08.629Z,1025.12
2019-03-20T00:15:08.520Z,1025.10
2019-03-20T00:16:08.410Z,1025.09
2019-03-20T00:17:08.303Z,1025.16
2019-03-20T00:18:08.196Z,1025.14
2019-03-20T00:19:08.088Z,1025.18
2019-03-20T00:20:07.975Z,1025.19
2019-03-20T00:21:07.874Z,1025.15
2019-03-20T00:22:07.804Z,1025.18
2019-03-20T00:23:07.653Z,1025.16
2019-03-20T00:24:07.540Z,1025.18
2019-03-20T00:25:07.433Z,1025.19
2019-03-20T00:26:07.325Z,1025.13
2019-03-20T00:27:07.215Z,1025.17
2019-03-20T00:28:07.106Z,1025.17
2019-03-20T00:29:06.998Z,1025.14
2019-03-20T00:30:06.893Z,1025.14
2019-03-20T00:31:06.780Z,1025.15
2019-03-20T00:32:06.676Z,1025.18
2019-03-20T00:33:06.565Z,1025.20
2019-03-20T00:34:06.455Z,1025.22
2019-03-20T00:35:06.346Z,1025.24
2019-03-20T00:36:06.236Z,1025.21
2019-03-20T00:37:06.131Z,1025.19
2019-03-20T00:38:06.022Z,1025.14
2019-03-20T00:39:05.912Z,1025.17
2019-03-20T00:40:05.814Z,1025.15
2019-03-20T00:41:05.740Z,1025.17
2019-03-20T00:42:05.585Z,1025.18
2019-03-20T00:43:05.481Z,1025.15
2019-03-20T00:44:05.368Z,1025.13
2019-03-20T00:45:05.258Z,1025.13
2019-03-20T00:46:05.152Z,1025.13
2019-03-20T00:47:05.041Z,1025.14
2019-03-20T00:48:04.936Z,1025.20
2019-03-20T00:49:04.824Z,1025.21
2019-03-20T00:50:04.716Z,1025.23
2019-03-20T00:51:04.606Z,1025.21
2019-03-20T00:52:04.497Z,1025.19
2019-03-20T00:53:04.392Z,1025.17
2019-03-20T00:54:04.278Z,1025.09
2019-03-20T00:55:04.169Z,1025.09
2019-03-20T00:56:04.066Z,1025.14
2019-03-20T00:57:03.955Z,1025.16
2019-03-20T00:58:03.845Z,1025.15
2019-03-20T00:59:03.771Z,1025.11
2019-03-20T01:00:03.700Z,1025.12
2019-03-20T01:01:03.548Z,1025.12
2019-03-20T01:02:03.410Z,1025.07
2019-03-20T01:03:03.300Z,1025.13
2019-03-20T01:04:03.194Z,1025.13
2019-03-20T01:05:12.266Z,1025.12
2019-03-20T01:06:02.974Z,1025.14
2019-03-20T01:07:02.865Z,1025.14
2019-03-20T01:08:02.755Z,1025.10
2019-03-20T01:09:02.648Z,1025.08
2019-03-20T01:10:02.541Z,1025.10
2019-03-20T01:11:02.429Z,1025.09
2019-03-20T01:12:02.321Z,1025.09
2019-03-20T01:13:02.212Z,1025.16
2019-03-20T01:14:02.105Z,1025.16
2019-03-20T01:15:01.998Z,1025.16
2019-03-20T01:16:01.886Z,1025.10
2019-03-20T01:17:01.779Z,1025.08
2019-03-20T01:18:01.708Z,1025.08
2019-03-20T01:19:01.558Z,1025.12
2019-03-20T01:20:01.451Z,1025.13
2019-03-20T01:21:01.343Z,1025.16
2019-03-20T01:22:01.233Z,1025.19
2019-03-20T01:23:01.124Z,1025.16
2019-03-20T01:24:01.015Z,1025.14
2019-03-20T01:25:00.906Z,1025.14
2019-03-20T01:26:00.799Z,1025.19
2019-03-20T01:27:00.688Z,1025.20
2019-03-20T01:28:00.578Z,1025.18
2019-03-20T01:29:00.469Z,1025.15
2019-03-20T01:30:00.457Z,1025.20
2019-03-20T01:31:00.252Z,1025.20
2019-03-20T01:32:00.143Z,1025.23
2019-03-20T01:33:00.033Z,1025.19
2019-03-20T01:33:59.925Z,1025.16
2019-03-20T01:34:59.815Z,1025.14
2019-03-20T01:35:59.729Z,1025.11
2019-03-20T01:36:59.656Z,1025.17
2019-03-20T01:37:59.489Z,1025.15
2019-03-20T01:38:59.378Z,1025.19
2019-03-20T01:39:59.275Z,1025.18
2019-03-20T01:40:59.165Z,1025.18
2019-03-20T01:41:59.052Z,1025.13
2019-03-20T01:42:58.943Z,1025.11
2019-03-20T01:43:58.834Z,1025.14
2019-03-20T01:44:58.760Z,1025.13
2019-03-20T01:45:58.616Z,1025.16
2019-03-20T01:46:58.508Z,1025.18
2019-03-20T01:47:58.397Z,1025.19
2019-03-20T01:48:58.290Z,1025.16
2019-03-20T01:49:58.181Z,1025.16
2019-03-20T01:50:58.070Z,1025.18
2019-03-20T01:51:57.961Z,1025.18
2019-03-20T01:52:57.859Z,1025.24
2019-03-20T01:53:57.745Z,1025.22
2019-03-20T01:54:57.710Z,1025.23
2019-03-20T01:55:57.525Z,1025.21
2019-03-20T01:56:57.415Z,1025.18
2019-03-20T01:57:57.309Z,1025.21
2019-03-20T01:58:57.196Z,1025.18
2019-03-20T01:59:57.091Z,1025.23
2019-03-20T02:00:56.983Z,1025.20
2019-03-20T02:01:56.870Z,1025.20
2019-03-20T02:02:57.059Z,1025.19
2019-03-20T02:03:56.651Z,1025.19
2019-03-20T02:04:56.542Z,1025.20
2019-03-20T02:05:56.434Z,1025.23
2019-03-20T02:06:56.324Z,1025.21
2019-03-20T02:07:56.219Z,1025.22
2019-03-20T02:08:56.109Z,1025.22
2019-03-20T02:09:55.999Z,1025.22
2019-03-20T02:10:55.891Z,1025.23
2019-03-20T02:11:55.778Z,1025.25
2019-03-20T02:12:55.686Z,1025.21
2019-03-20T02:13:55.608Z,1025.27
2019-03-20T02:14:55.452Z,1025.28
2019-03-20T02:15:55.342Z,1025.29
2019-03-20T02:16:55.231Z,1025.27
2019-03-20T02:17:55.128Z,1025.33
2019-03-20T02:18:55.016Z,1025.33
2019-03-20T02:19:54.904Z,1025.35
2019-03-20T02:20:54.796Z,1025.32
2019-03-20T02:21:54.687Z,1025.34
2019-03-20T02:22:54.579Z,1025.31
2019-03-20T02:23:54.469Z,1025.32
2019-03-20T02:24:54.359Z,1025.32
2019-03-20T02:25:54.250Z,1025.33
2019-03-20T02:26:54.141Z,1025.34
2019-03-20T02:27:54.032Z,1025.40
2019-03-20T02:28:53.923Z,1025.37
2019-03-20T02:29:53.814Z,1025.38
2019-03-20T02:30:53.703Z,1025.36
2019-03-20T02:31:53.667Z,1025.37
2019-03-20T02:32:53.486Z,1025.31
2019-03-20T02:33:53.378Z,1025.31
2019-03-20T02:34:53.273Z,1025.37
2019-03-20T02:35:53.159Z,1025.34
2019-03-20T02:36:53.049Z,1025.34
2019-03-20T02:37:52.939Z,1025.39
2019-03-20T02:38:52.830Z,1025.39
2019-03-20T02:39:52.726Z,1025.34
2019-03-20T02:40:52.616Z,1025.33
2019-03-20T02:41:52.502Z,1025.34
2019-03-20T02:42:52.394Z,1025.32
2019-03-20T02:43:52.297Z,1025.32
2019-03-20T02:44:52.178Z,1025.31
2019-03-20T02:45:52.068Z,1025.37
2019-03-20T02:46:51.954Z,1025.35
2019-03-20T02:47:51.849Z,1025.37
2019-03-20T02:48:51.739Z,1025.38
2019-03-20T02:49:51.641Z,1025.33
2019-03-20T02:50:51.577Z,1025.38
2019-03-20T02:51:51.411Z,1025.35
2019-03-20T02:52:51.306Z,1025.37
2019-03-20T02:53:51.281Z,1025.39
2019-03-20T02:54:51.087Z,1025.40
2019-03-20T02:55:50.975Z,1025.39
2019-03-20T02:56:50.865Z,1025.39
2019-03-20T02:57:50.755Z,1025.38
2019-03-20T02:58:50.645Z,1025.41
2019-03-20T02:59:50.541Z,1025.43
2019-03-20T03:00:50.433Z,1025.42
2019-03-20T03:01:50.317Z,1025.44
2019-03-20T03:02:50.206Z,1025.47
2019-03-20T03:03:50.098Z,1025.46
2019-03-20T03:04:49.987Z,1025.50
2019-03-20T03:05:49.878Z,1025.49
2019-03-20T03:06:49.769Z,1025.51
2019-03-20T03:07:49.960Z,1025.51
2019-03-20T03:08:49.620Z,1025.51
2019-03-20T03:09:49.440Z,1025.50
2019-03-20T03:10:49.334Z,1025.52
2019-03-20T03:11:49.228Z,1025.53
2019-03-20T03:12:49.112Z,1025.52
2019-03-20T03:13:49.002Z,1025.51
2019-03-20T03:14:48.895Z,1025.54
2019-03-20T03:15:48.785Z,1025.51
2019-03-20T03:16:48.673Z,1025.53
2019-03-20T03:17:48.567Z,1025.48
2019-03-20T03:18:48.465Z,1025.53
2019-03-20T03:19:48.349Z,1025.51
2019-03-20T03:20:48.264Z,1025.49
2019-03-20T03:21:48.134Z,1025.53
2019-03-20T03:22:48.017Z,1025.47
2019-03-20T03:23:47.907Z,1025.52
2019-03-20T03:24:47.798Z,1025.44
2019-03-20T03:25:50.025Z,1025.47
2019-03-20T03:26:47.599Z,1025.49
2019-03-20T03:27:47.525Z,1025.43
2019-03-20T03:28:47.361Z,1025.49
2019-03-20T03:29:47.252Z,1025.51
2019-03-20T03:30:47.139Z,1025.49
2019-03-20T03:31:47.032Z,1025.51
2019-03-20T03:32:47.076Z,1025.51
2019-03-20T03:33:46.815Z,1025.50
2019-03-20T03:34:46.705Z,1025.47
2019-03-20T03:35:46.594Z,1025.49
2019-03-20T03:36:46.485Z,1025.49
2019-03-20T03:37:46.385Z,1025.47
2019-03-20T03:38:46.265Z,1025.44
2019-03-20T03:39:46.156Z,1025.50
2019-03-20T03:40:46.047Z,1025.50
2019-03-20T03:41:45.946Z,1025.49
2019-03-20T03:42:45.837Z,1025.56
2019-03-20T03:43:45.723Z,1025.52
2019-03-20T03:44:45.614Z,1025.59
2019-03-20T03:45:45.561Z,1025.57
2019-03-20T03:46:45.390Z,1025.62
2019-03-20T03:47:45.279Z,1025.63
2019-03-20T03:48:45.169Z,1025.58
2019-03-20T03:49:45.063Z,1025.57
2019-03-20T03:50:48.116Z,1025.57
2019-03-20T03:51:44.839Z,1025.61
2019-03-20T03:52:44.734Z,1025.61
2019-03-20T03:53:44.623Z,1025.63
2019-03-20T03:54:44.513Z,1025.61
2019-03-20T03:55:44.404Z,1025.64
2019-03-20T03:56:44.294Z,1025.64
2019-03-20T03:57:44.187Z,1025.65
2019-03-20T03:58:44.074Z,1025.68
2019-03-20T03:59:43.966Z,1025.70
2019-03-20T04:00:43.859Z,1025.65
2019-03-20T04:01:43.746Z,1025.67
2019-03-20T04:02:43.635Z,1025.64
2019-03-20T04:03:43.543Z,1025.67
2019-03-20T04:04:43.476Z,1025.67
2019-03-20T04:05:43.311Z,1025.67
2019-03-20T04:06:43.200Z,1025.66
2019-03-20T04:07:43.090Z,1025.62
2019-03-20T04:08:42.980Z,1025.64
2019-03-20T04:09:42.870Z,1025.68
2019-03-20T04:10:42.759Z,1025.70
2019-03-20T04:11:42.655Z,1025.67
2019-03-20T04:12:42.546Z,1025.68
2019-03-20T04:13:42.435Z,1025.73
2019-03-20T04:14:42.325Z,1025.73
2019-03-20T04:15:42.220Z,1025.77
2019-03-20T04:16:42.103Z,1025.75
2019-03-20T04:17:41.994Z,1025.74
2019-03-20T04:18:41.885Z,1025.81
2019-03-20T04:19:41.775Z,1025.80
2019-03-20T04:20:41.665Z,1025.80
2019-03-20T04:21:41.555Z,1025.82
2019-03-20T04:22:41.816Z,1025.83
2019-03-20T04:23:41.337Z,1025.79
2019-03-20T04:24:41.230Z,1025.82
2019-03-20T04:25:41.120Z,1025.79
2019-03-20T04:26:41.007Z,1025.81
2019-03-20T04:27:40.898Z,1025.82
2019-03-20T04:28:40.788Z,1025.84
2019-03-20T04:29:40.679Z,1025.83
2019-03-20T04:30:40.567Z,1025.86
2019-03-20T04:31:40.459Z,1025.86
2019-03-20T04:32:40.366Z,1025.85
2019-03-20T04:33:40.251Z,1025.91
2019-03-20T04:34:40.135Z,1025.89
2019-03-20T04:35:40.023Z,1025.94
2019-03-20T04:36:47.542Z,1025.93
2019-03-20T04:37:39.800Z,1025.99
2019-03-20T04:38:39.690Z,1025.92
2019-03-20T04:39:39.580Z,1025.93
2019-03-20T04:40:39.509Z,1025.91
2019-03-20T04:41:39.427Z,1025.94
2019-03-20T04:42:39.254Z,1025.92
2019-03-20T04:43:39.146Z,1025.90
2019-03-20T04:44:39.033Z,1025.90
2019-03-20T04:45:38.927Z,1025.96
2019-03-20T04:46:38.811Z,1025.93
2019-03-20T04:47:38.703Z,1025.96
2019-03-20T04:48:38.591Z,1025.96
2019-03-20T04:49:38.483Z,1025.96
2019-03-20T04:50:38.374Z,1026.01
2019-03-20T04:51:38.264Z,1026.00
2019-03-20T04:52:38.200Z,1025.97
2019-03-20T04:53:38.046Z,1025.99
2019-03-20T04:54:37.935Z,1025.95
2019-03-20T04:55:37.825Z,1025.98
2019-03-20T04:56:37.714Z,1025.95
2019-03-20T04:57:37.607Z,1025.97
2019-03-20T04:58:37.499Z,1025.96
2019-03-20T04:59:37.466Z,1025.98
2019-03-20T05:00:37.279Z,1025.99
2019-03-20T05:01:37.181Z,1025.99
2019-03-20T09:55:06.022Z,1027.62
2019-03-20T09:56:05.922Z,1027.67
2019-03-20T09:57:05.817Z,1027.68
2019-03-20T09:58:11.544Z,1027.68
2019-03-20T09:59:05.614Z,1027.68
2019-03-20T10:00:05.520Z,1027.64
2019-03-20T10:01:05.411Z,1027.64
2019-03-20T10:02:05.306Z,1027.65
2019-03-20T10:03:05.201Z,1027.52
2019-03-20T10:04:05.104Z,1027.54
2019-03-20T10:05:05.030Z,1027.55
2019-03-20T10:06:04.896Z,1027.50
2019-03-20T10:07:04.791Z,1027.53
2019-03-20T10:08:04.691Z,1027.57
2019-03-20T10:09:04.591Z,1027.55
2019-03-20T10:10:04.484Z,1027.55
2019-03-20T10:11:04.387Z,1027.56
2019-03-20T10:12:04.282Z,1027.52
2019-03-20T10:13:04.177Z,1027.59
2019-03-20T10:14:04.072Z,1027.52
2019-03-20T10:15:03.971Z,1027.56
2019-03-20T10:16:03.872Z,1027.46
2019-03-20T10:17:03.769Z,1027.47
2019-03-20T10:18:03.665Z,1027.48
2019-03-20T10:19:03.564Z,1027.48
2019-03-20T10:20:03.462Z,1027.42
2019-03-20T10:21:03.360Z,1027.43
2019-03-20T10:22:03.265Z,1027.42
2019-03-20T10:23:03.161Z,1027.44
2019-03-20T10:24:03.075Z,1027.45
2019-03-20T10:25:03.006Z,1027.45
2019-03-20T10:26:02.850Z,1027.38
2019-03-20T10:27:02.746Z,1027.35
2019-03-20T10:28:02.643Z,1027.32
2019-03-20T10:29:02.541Z,1027.30
2019-03-20T10:30:02.440Z,1027.28
2019-03-20T10:31:02.338Z,1027.27
2019-03-20T10:32:02.239Z,1027.36
2019-03-20T10:33:02.136Z,1027.27
2019-03-20T10:34:02.032Z,1027.29
2019-03-20T10:35:01.931Z,1027.28
2019-03-20T10:36:01.830Z,1027.26
2019-03-20T10:37:01.725Z,1027.28
2019-03-20T10:38:01.624Z,1027.30
2019-03-20T10:39:06.345Z,1027.28
2019-03-20T10:40:01.422Z,1027.28
2019-03-20T10:41:01.321Z,1027.30
2019-03-20T10:42:01.219Z,1027.29
2019-03-20T10:43:01.114Z,1027.29
2019-03-20T10:44:01.052Z,1027.29
2019-03-20T10:45:00.988Z,1027.23
2019-03-20T10:46:00.808Z,1027.27
2019-03-20T10:47:00.706Z,1027.32
2019-03-20T10:48:00.606Z,1027.31
2019-03-20T10:49:00.504Z,1027.44
2019-03-20T10:50:00.428Z,1027.41
2019-03-20T10:51:00.301Z,1027.40
2019-03-20T10:52:00.196Z,1027.42
2019-03-20T10:53:00.094Z,1027.42
2019-03-20T10:53:59.993Z,1027.41
2019-03-20T10:54:59.891Z,1027.39
2019-03-20T10:55:59.809Z,1027.37
2019-03-20T10:56:59.743Z,1027.36
2019-03-20T10:57:59.587Z,1027.41
2019-03-20T10:58:59.484Z,1027.39
2019-03-20T10:59:59.383Z,1027.45
2019-03-20T11:00:59.284Z,1027.46
2019-03-20T11:02:00.864Z,1027.44
2019-03-20T11:02:59.078Z,1027.43
2019-03-20T11:03:59.034Z,1027.46
2019-03-20T11:04:58.896Z,1027.41
2019-03-20T11:05:58.770Z,1027.45
2019-03-20T11:06:58.670Z,1027.42
2019-03-20T11:07:58.570Z,1027.43
2019-03-20T11:08:58.467Z,1027.47
2019-03-20T11:09:58.365Z,1027.38
2019-03-20T11:10:58.265Z,1027.43
2019-03-20T11:11:58.173Z,1027.47
2019-03-20T11:12:58.066Z,1027.37
2019-03-20T11:13:57.961Z,1027.41
2019-03-20T11:14:57.862Z,1027.40
2019-03-20T11:15:57.768Z,1027.38
2019-03-20T11:16:57.659Z,1027.37
2019-03-20T11:17:57.555Z,1027.39
2019-03-20T11:18:57.461Z,1027.37
2019-03-20T11:19:57.355Z,1027.38
2019-03-20T11:20:57.255Z,1027.36
2019-03-20T11:21:57.155Z,1027.40
2019-03-20T11:22:57.053Z,1027.30
2019-03-20T11:23:57.005Z,1027.37
2019-03-20T11:24:56.885Z,1027.37
2019-03-20T11:25:56.749Z,1027.31
2019-03-20T11:26:56.648Z,1027.35
2019-03-20T11:27:56.555Z,1027.33
2019-03-20T11:28:56.450Z,1027.33
2019-03-20T11:29:56.350Z,1027.29
2019-03-20T11:30:56.249Z,1027.28
2019-03-20T11:31:56.148Z,1027.31
2019-03-20T11:32:56.051Z,1027.29
2019-03-20T11:33:55.945Z,1027.25
2019-03-20T11:34:55.848Z,1027.31
2019-03-20T11:35:55.747Z,1027.22
2019-03-20T11:36:55.647Z,1027.27
2019-03-20T11:37:55.550Z,1027.21
2019-03-20T11:38:55.445Z,1027.14
2019-03-20T11:39:55.346Z,1027.17
2019-03-20T11:40:55.246Z,1027.21
2019-03-20T11:41:55.148Z,1027.21
2019-03-20T11:42:55.046Z,1027.20
2019-03-20T11:43:54.998Z,1027.17
2019-03-20T11:44:54.922Z,1027.19
2019-03-20T11:45:54.747Z,1027.24
2019-03-20T11:46:54.647Z,1027.25
2019-03-20T11:47:54.549Z,1027.25
2019-03-20T11:48:54.450Z,1027.25
2019-03-20T11:49:54.349Z,1027.26
2019-03-20T11:50:54.250Z,1027.27
2019-03-20T11:51:54.150Z,1027.23
2019-03-20T11:52:54.047Z,1027.27
2019-03-20T11:53:53.951Z,1027.24
2019-03-20T11:54:53.856Z,1027.24
2019-03-20T11:55:53.751Z,1027.26
2019-03-20T11:56:53.652Z,1027.22
2019-03-20T11:57:53.549Z,1027.22
2019-03-20T11:58:53.453Z,1027.20
2019-03-20T11:59:53.357Z,1027.14
2019-03-20T12:00:53.254Z,1027.16
2019-03-20T12:01:53.156Z,1027.16
2019-03-20T12:02:53.054Z,1027.20
2019-03-20T12:03:53.021Z,1027.22
2019-03-20T12:04:54.021Z,1027.22
2019-03-20T12:05:52.759Z,1027.23
2019-03-20T12:06:52.659Z,1027.26
2019-03-20T12:07:52.557Z,1027.27
2019-03-20T12:08:52.460Z,1027.20
2019-03-20T12:09:52.359Z,1027.28
2019-03-20T12:10:52.673Z,1027.22
2019-03-20T12:11:52.177Z,1027.27
2019-03-20T12:12:52.067Z,1027.26
2019-03-20T12:13:51.963Z,1027.21
2019-03-20T12:14:51.868Z,1027.20
2019-03-20T12:15:51.765Z,1027.18
2019-03-20T12:16:51.670Z,1027.20
2019-03-20T12:17:51.568Z,1027.23
2019-03-20T12:18:51.470Z,1027.15
2019-03-20T12:19:51.371Z,1027.11
2019-03-20T12:20:51.272Z,1027.12
2019-03-20T12:21:51.173Z,1027.12
2019-03-20T12:22:51.073Z,1027.06
2019-03-20T12:23:50.974Z,1027.08
2019-03-20T12:24:50.921Z,1027.06
2019-03-20T12:25:50.870Z,1027.13
2019-03-20T12:26:50.679Z,1027.07
2019-03-20T12:27:50.579Z,1027.11
2019-03-20T12:28:50.480Z,1027.08
2019-03-20T12:29:50.380Z,1027.15
2019-03-20T12:30:50.282Z,1027.08
2019-03-20T12:31:50.182Z,1027.14
2019-03-20T12:32:50.083Z,1027.15
2019-03-20T12:33:49.983Z,1027.16
2019-03-20T12:34:49.884Z,1027.17
2019-03-20T12:35:49.794Z,1027.14
2019-03-20T12:36:49.686Z,1027.20
2019-03-20T12:37:49.590Z,1027.17
2019-03-20T12:38:49.488Z,1027.14
2019-03-20T12:39:53.365Z,1027.17
2019-03-20T12:40:49.291Z,1027.18
2019-03-20T12:41:49.189Z,1027.14
2019-03-20T12:42:49.093Z,1027.17
2019-03-20T12:43:48.990Z,1027.11
2019-03-20T12:44:48.936Z,1027.08
2019-03-20T12:45:48.835Z,1027.16
2019-03-20T12:46:48.691Z,1027.12
2019-03-20T12:47:48.593Z,1027.08
2019-03-20T12:48:48.492Z,1027.11
2019-03-20T12:49:48.394Z,1027.06
2019-03-20T12:50:48.293Z,1027.06
2019-03-20T12:51:48.194Z,1027.02
2019-03-20T12:52:48.097Z,1026.93
2019-03-20T12:53:47.996Z,1026.93
2019-03-20T12:54:47.896Z,1026.97
2019-03-20T12:55:47.796Z,1026.98
2019-03-20T12:56:47.698Z,1026.95
2019-03-20T12:57:47.596Z,1026.96
2019-03-20T12:58:47.508Z,1026.92
2019-03-20T12:59:47.397Z,1026.97
2019-03-20T13:01:26.388Z,1026.86
2019-03-20T13:02:26.233Z,1026.88
2019-03-20T13:03:26.137Z,1026.87
2019-03-20T13:04:26.032Z,1026.89
2019-03-20T13:05:25.931Z,1026.85
2019-03-20T13:06:25.836Z,1026.85
2019-03-20T13:07:25.733Z,1026.83
2019-03-20T13:08:25.631Z,1026.88
2019-03-20T13:09:25.534Z,1026.92
2019-03-20T13:10:25.434Z,1026.89
2019-03-20T13:11:25.335Z,1026.85
2019-03-20T13:12:25.235Z,1026.90
2019-03-20T13:13:25.133Z,1026.87
2019-03-20T13:14:25.036Z,1026.91
2019-03-20T13:15:24.937Z,1026.80
2019-03-20T13:16:24.871Z,1026.85
2019-03-20T13:17:24.798Z,1026.84
2019-03-20T13:18:24.637Z,1026.80
2019-03-20T13:19:24.538Z,1026.79
2019-03-20T13:20:24.446Z,1026.76
2019-03-20T13:21:24.338Z,1026.77
2019-03-20T13:22:24.238Z,1026.76
2019-03-20T13:23:24.141Z,1026.71
2019-03-20T13:24:24.040Z,1026.75
2019-03-20T13:25:23.941Z,1026.73
2019-03-20T13:26:23.838Z,1026.76
2019-03-20T13:27:23.743Z,1026.74
2019-03-20T13:28:23.647Z,1026.76
2019-03-20T13:29:23.542Z,1026.76
2019-03-20T13:30:23.442Z,1026.76
2019-03-20T13:31:23.344Z,1026.76
2019-03-20T13:32:23.246Z,1026.73
2019-03-20T13:33:25.943Z,1026.70
2019-03-20T13:34:23.043Z,1026.71
2019-03-20T13:35:22.947Z,1026.67
2019-03-20T13:36:22.849Z,1026.69
2019-03-20T13:37:22.772Z,1026.67
2019-03-20T13:38:22.652Z,1026.65
2019-03-20T13:39:22.552Z,1026.64
2019-03-20T13:40:22.449Z,1026.66
2019-03-20T13:41:22.350Z,1026.58
2019-03-20T13:42:22.252Z,1026.64
2019-03-20T13:43:22.155Z,1026.53
2019-03-20T13:44:22.052Z,1026.53
2019-03-20T13:45:21.958Z,1026.46
2019-03-20T13:46:21.857Z,1026.61
2019-03-20T13:47:21.754Z,1026.64
2019-03-20T13:48:21.653Z,1026.53
2019-03-20T13:49:21.555Z,1026.47
2019-03-20T13:50:21.455Z,1026.58
2019-03-20T13:51:21.354Z,1026.51
2019-03-20T13:52:21.255Z,1026.55
2019-03-20T13:53:21.158Z,1026.58
2019-03-20T13:54:21.057Z,1026.59
2019-03-20T13:55:20.962Z,1026.59
2019-03-20T13:56:20.859Z,1026.52
2019-03-20T13:57:20.827Z,1026.61
2019-03-20T13:58:20.677Z,1026.62
2019-03-20T13:59:20.612Z,1026.60
2019-03-20T14:00:20.462Z,1026.55
2019-03-20T14:01:20.360Z,1026.68
2019-03-20T14:02:20.263Z,1026.61
2019-03-20T14:03:20.163Z,1026.64
2019-03-20T14:04:20.065Z,1026.65
2019-03-20T14:05:19.965Z,1026.62
2019-03-20T14:06:19.860Z,1026.66
2019-03-20T14:07:19.763Z,1026.61
2019-03-20T14:08:19.665Z,1026.60
2019-03-20T14:09:19.563Z,1026.62
2019-03-20T14:10:25.169Z,1026.64
2019-03-20T14:11:19.366Z,1026.77
2019-03-20T14:12:19.264Z,1026.75
2019-03-20T14:13:19.165Z,1026.78
2019-03-20T14:14:19.065Z,1026.82
2019-03-20T14:15:18.965Z,1026.74
2019-03-20T14:16:18.864Z,1026.79
2019-03-20T14:17:18.786Z,1026.75
2019-03-20T14:18:18.723Z,1026.84
2019-03-20T14:19:18.564Z,1026.86
2019-03-20T14:20:18.465Z,1026.80
2019-03-20T14:21:18.365Z,1026.86
2019-03-20T14:22:18.266Z,1026.87
2019-03-20T14:23:18.171Z,1026.79
2019-03-20T14:24:18.066Z,1026.66
2019-03-20T14:25:17.966Z,1026.69
2019-03-20T14:26:17.865Z,1026.67
2019-03-20T14:27:17.766Z,1026.68
2019-03-20T14:28:17.668Z,1026.60
2019-03-20T14:29:17.565Z,1026.55
2019-03-20T14:30:17.476Z,1026.58
2019-03-20T14:31:17.366Z,1026.63
2019-03-20T14:32:17.270Z,1026.67
2019-03-20T14:33:17.168Z,1026.63
2019-03-20T14:34:17.068Z,1026.63
2019-03-20T14:35:16.969Z,1026.64
2019-03-20T14:36:16.872Z,1026.61
2019-03-20T14:37:16.772Z,1026.61
2019-03-20T14:38:16.702Z,1026.62
2019-03-20T14:39:16.567Z,1026.64
2019-03-20T14:40:16.470Z,1026.67
2019-03-20T14:41:21.484Z,1026.68
2019-03-20T14:42:16.270Z,1026.64
2019-03-20T14:43:16.258Z,1026.58
2019-03-20T14:44:16.072Z,1026.54
2019-03-20T14:45:15.968Z,1026.47
2019-03-20T14:46:15.870Z,1026.43
2019-03-20T14:47:15.769Z,1026.46
2019-03-20T14:48:15.671Z,1026.53
2019-03-20T14:49:15.568Z,1026.53
2019-03-20T14:50:15.473Z,1026.59
2019-03-20T14:51:15.368Z,1026.39
2019-03-20T14:52:15.269Z,1026.40
2019-03-20T14:53:15.168Z,1026.42
2019-03-20T14:54:15.075Z,1026.35
2019-03-20T14:55:14.967Z,1026.39
2019-03-20T14:56:14.868Z,1026.40
2019-03-20T14:57:15.071Z,1026.43
2019-03-20T14:58:14.732Z,1026.41
2019-03-20T14:59:14.569Z,1026.37
2019-03-20T15:00:14.470Z,1026.38
2019-03-20T15:01:14.369Z,1026.35
2019-03-20T15:02:14.273Z,1026.31
2019-03-20T15:03:14.171Z,1026.23
2019-03-20T15:04:14.070Z,1026.27
2019-03-20T15:05:13.972Z,1026.13
2019-03-20T15:06:13.868Z,1026.16
2019-03-20T15:07:13.771Z,1026.26
2019-03-20T15:08:13.671Z,1026.31
2019-03-20T15:09:13.620Z,1026.33
2019-03-20T15:10:13.474Z,1026.30
2019-03-20T15:11:13.374Z,1026.35
2019-03-20T15:12:13.276Z,1026.35
2019-03-20T15:13:13.177Z,1026.26
2019-03-20T15:14:13.074Z,1026.39
2019-03-20T15:15:12.978Z,1026.48
2019-03-20T15:16:12.876Z,1026.34
2019-03-20T15:17:13.076Z,1026.39
2019-03-20T15:18:12.729Z,1026.35
2019-03-20T15:19:12.644Z,1026.34
2019-03-20T15:20:12.481Z,1026.37
2019-03-20T15:21:12.379Z,1026.34
2019-03-20T15:22:12.279Z,1026.34
2019-03-20T15:23:12.180Z,1026.29
2019-03-20T15:24:12.085Z,1026.28
2019-03-20T15:25:11.986Z,1026.29
2019-03-20T15:26:11.879Z,1026.29
2019-03-20T15:27:11.782Z,1026.32
2019-03-20T15:28:11.685Z,1026.28
2019-03-20T15:29:11.585Z,1026.27
2019-03-20T15:30:11.484Z,1026.24
2019-03-20T15:31:11.384Z,1026.22
2019-03-20T15:32:11.286Z,1026.14
2019-03-20T15:33:11.191Z,1026.17
2019-03-20T15:34:11.089Z,1026.16
2019-03-20T15:35:10.990Z,1026.11
2019-03-20T15:36:10.891Z,1026.11
2019-03-20T15:37:10.790Z,1026.11
2019-03-20T15:38:10.690Z,1026.11
2019-03-20T15:39:10.619Z,1026.06
2019-03-20T15:40:10.495Z,1026.09
2019-03-20T15:41:10.394Z,1026.14
2019-03-20T15:42:10.294Z,1026.10
2019-03-20T15:43:10.194Z,1026.11
2019-03-20T15:44:10.098Z,1026.11
2019-03-20T15:45:09.997Z,1026.15
2019-03-20T15:46:09.896Z,1026.12
2019-03-20T15:47:09.802Z,1026.04
2019-03-20T15:48:09.701Z,1026.08
2019-03-20T15:49:09.598Z,1026.05
2019-03-20T15:50:09.497Z,1026.08
2019-03-20T15:51:09.400Z,1026.04
2019-03-20T15:52:09.300Z,1026.10
2019-03-20T15:53:09.198Z,1026.08
2019-03-20T15:54:09.100Z,1026.10
2019-03-20T15:55:09.000Z,1026.09
2019-03-20T15:56:08.905Z,1026.10
2019-03-20T15:57:08.805Z,1026.08
2019-03-20T15:58:08.703Z,1026.06
2019-03-20T15:59:08.677Z,1026.13
2019-03-20T16:00:08.511Z,1026.13
2019-03-20T16:01:08.405Z,1026.14
2019-03-20T16:02:08.304Z,1026.12
2019-03-20T16:03:08.205Z,1026.12
2019-03-20T16:04:08.109Z,1026.13
2019-03-20T16:05:08.006Z,1026.11
2019-03-20T16:06:07.907Z,1026.15
2019-03-20T16:07:07.811Z,1026.12
2019-03-20T16:08:07.723Z,1026.13
2019-03-20T16:09:07.609Z,1026.06
2019-03-20T16:10:07.509Z,1026.06
2019-03-20T16:11:07.410Z,1026.07
2019-03-20T16:12:07.310Z,1026.07
2019-03-20T16:13:07.212Z,1026.14
2019-03-20T16:14:07.115Z,1026.13
2019-03-20T16:15:07.018Z,1026.10
2019-03-20T16:16:06.914Z,1026.10
2019-03-20T16:17:06.815Z,1026.15
2019-03-20T16:18:06.714Z,1026.15
2019-03-20T16:19:06.645Z,1026.19
2019-03-20T16:20:06.566Z,1026.18
2019-03-20T16:21:06.419Z,1026.21
2019-03-20T16:22:06.316Z,1026.20
2019-03-20T16:23:06.216Z,1026.24
2019-03-20T16:24:06.118Z,1026.23
2019-03-20T16:25:06.027Z,1026.21
2019-03-20T16:26:05.919Z,1026.22
2019-03-20T16:27:05.819Z,1026.22
2019-03-20T16:28:05.720Z,1026.17
2019-03-20T16:29:05.620Z,1026.20
2019-03-20T16:30:05.520Z,1026.20
2019-03-20T16:31:05.421Z,1026.17
2019-03-20T16:32:05.321Z,1026.23
2019-03-20T16:33:05.222Z,1026.22
2019-03-20T16:34:05.122Z,1026.21
2019-03-20T16:35:05.026Z,1026.22
2019-03-20T16:36:04.928Z,1026.16
2019-03-20T16:37:04.824Z,1026.18
2019-03-20T16:38:06.927Z,1026.17
2019-03-20T16:39:04.625Z,1026.08
2019-03-20T16:40:04.549Z,1026.18
2019-03-20T16:41:04.428Z,1026.16
2019-03-20T16:42:04.373Z,1026.21
2019-03-20T16:43:04.225Z,1026.23
2019-03-20T16:44:04.127Z,1026.27
2019-03-20T16:45:04.027Z,1026.23
2019-03-20T16:46:03.927Z,1026.22
2019-03-20T16:47:03.828Z,1026.24
2019-03-20T16:48:03.732Z,1026.20
2019-03-20T16:49:03.629Z,1026.20
2019-03-20T16:50:03.529Z,1026.14
2019-03-20T16:51:03.431Z,1026.16
2019-03-20T16:52:03.329Z,1026.15
2019-03-20T16:53:03.232Z,1026.21
2019-03-20T16:54:03.130Z,1026.18
2019-03-20T16:55:03.032Z,1026.20
2019-03-20T16:56:02.928Z,1026.22
2019-03-20T16:57:02.833Z,1026.28